sensor_id;sensor_type;location;lat;lon;timestamp;P1;durP1;ratioP1;P2;durP2;ratioP2
54191;SDS011;40101;53.002;6.488;2023-09-18T00:00:24;31.80;;;23.85;;
54191;SDS011;40101;53.002;6.488;2023-09-18T00:02:49;33.33;;;23.45;;
54191;SDS011;40101;53.002;6.488;2023-09-18T00:05:15;37.38;;;25.38;;
54191;SDS011;40101;53.002;6.488;2023-09-18T00:07:44;33.70;;;25.27;;
54191;SDS011;40101;53.002;6.488;2023-09-18T00:10:10;33.78;;;24.35;;
54191;SDS011;40101;53.002;6.488;2023-09-18T00:12:36;33.92;;;25.02;;
54191;SDS011;40101;53.002;6.488;2023-09-18T00:15:02;31.40;;;23.70;;
54191;SDS011;40101;53.002;6.488;2023-09-18T00:17:29;36.53;;;25.05;;
54191;SDS011;40101;53.002;6.488;2023-09-18T00:19:54;31.60;;;23.98;;
54191;SDS011;40101;53.002;6.488;2023-09-18T00:22:20;36.78;;;24.38;;
54191;SDS011;40101;53.002;6.488;2023-09-18T00:24:46;32.30;;;23.75;;
54191;SDS011;40101;53.002;6.488;2023-09-18T00:27:12;32.58;;;24.88;;
54191;SDS011;40101;53.002;6.488;2023-09-18T00:29:38;37.22;;;24.98;;
54191;SDS011;40101;53.002;6.488;2023-09-18T00:32:04;33.97;;;25.77;;
54191;SDS011;40101;53.002;6.488;2023-09-18T00:34:33;34.20;;;26.17;;
54191;SDS011;40101;53.002;6.488;2023-09-18T00:36:58;33.97;;;24.48;;
54191;SDS011;40101;53.002;6.488;2023-09-18T00:39:24;32.80;;;24.40;;
54191;SDS011;40101;53.002;6.488;2023-09-18T00:41:50;35.00;;;25.27;;
54191;SDS011;40101;53.002;6.488;2023-09-18T00:44:19;29.60;;;23.95;;
54191;SDS011;40101;53.002;6.488;2023-09-18T00:46:46;31.25;;;23.85;;
54191;SDS011;40101;53.002;6.488;2023-09-18T00:49:11;29.63;;;22.45;;
54191;SDS011;40101;53.002;6.488;2023-09-18T00:51:38;30.90;;;22.00;;
54191;SDS011;40101;53.002;6.488;2023-09-18T00:54:04;26.25;;;21.90;;
54191;SDS011;40101;53.002;6.488;2023-09-18T00:56:32;31.10;;;22.60;;
54191;SDS011;40101;53.002;6.488;2023-09-18T00:58:58;28.55;;;20.02;;
54191;SDS011;40101;53.002;6.488;2023-09-18T01:01:25;23.10;;;19.70;;
54191;SDS011;40101;53.002;6.488;2023-09-18T01:03:51;26.58;;;20.63;;
54191;SDS011;40101;53.002;6.488;2023-09-18T01:06:18;24.38;;;19.70;;
54191;SDS011;40101;53.002;6.488;2023-09-18T01:08:46;26.67;;;20.17;;
54191;SDS011;40101;53.002;6.488;2023-09-18T01:11:19;23.65;;;20.58;;
54191;SDS011;40101;53.002;6.488;2023-09-18T01:13:52;23.85;;;19.42;;
54191;SDS011;40101;53.002;6.488;2023-09-18T01:16:25;28.83;;;19.98;;
54191;SDS011;40101;53.002;6.488;2023-09-18T01:18:57;24.48;;;19.83;;
54191;SDS011;40101;53.002;6.488;2023-09-18T01:21:22;23.33;;;18.95;;
54191;SDS011;40101;53.002;6.488;2023-09-18T01:23:48;22.08;;;18.50;;
54191;SDS011;40101;53.002;6.488;2023-09-18T01:26:14;24.85;;;18.65;;
54191;SDS011;40101;53.002;6.488;2023-09-18T01:28:40;23.85;;;17.40;;
54191;SDS011;40101;53.002;6.488;2023-09-18T01:31:05;21.73;;;17.83;;
54191;SDS011;40101;53.002;6.488;2023-09-18T01:33:32;20.30;;;17.45;;
54191;SDS011;40101;53.002;6.488;2023-09-18T01:35:59;18.20;;;16.25;;
54191;SDS011;40101;53.002;6.488;2023-09-18T01:38:25;22.27;;;17.20;;
54191;SDS011;40101;53.002;6.488;2023-09-18T01:40:52;27.58;;;16.98;;
54191;SDS011;40101;53.002;6.488;2023-09-18T01:43:19;22.98;;;17.15;;
54191;SDS011;40101;53.002;6.488;2023-09-18T01:45:45;24.13;;;20.00;;
54191;SDS011;40101;53.002;6.488;2023-09-18T01:48:11;23.02;;;18.98;;
54191;SDS011;40101;53.002;6.488;2023-09-18T01:50:37;27.20;;;20.20;;
54191;SDS011;40101;53.002;6.488;2023-09-18T01:53:05;25.58;;;20.63;;
54191;SDS011;40101;53.002;6.488;2023-09-18T01:55:30;25.75;;;21.83;;
54191;SDS011;40101;53.002;6.488;2023-09-18T01:57:57;27.27;;;20.80;;
54191;SDS011;40101;53.002;6.488;2023-09-18T02:00:24;25.02;;;21.63;;
54191;SDS011;40101;53.002;6.488;2023-09-18T02:02:49;25.70;;;20.73;;
54191;SDS011;40101;53.002;6.488;2023-09-18T02:05:15;26.35;;;21.60;;
54191;SDS011;40101;53.002;6.488;2023-09-18T02:07:41;26.83;;;21.90;;
54191;SDS011;40101;53.002;6.488;2023-09-18T02:10:06;26.67;;;21.92;;
54191;SDS011;40101;53.002;6.488;2023-09-18T02:12:32;26.42;;;22.25;;
54191;SDS011;40101;53.002;6.488;2023-09-18T02:14:58;23.75;;;21.17;;
54191;SDS011;40101;53.002;6.488;2023-09-18T02:17:26;28.65;;;22.08;;
54191;SDS011;40101;53.002;6.488;2023-09-18T02:19:51;27.05;;;22.13;;
54191;SDS011;40101;53.002;6.488;2023-09-18T02:22:17;26.80;;;22.70;;
54191;SDS011;40101;53.002;6.488;2023-09-18T02:24:43;24.80;;;22.23;;
54191;SDS011;40101;53.002;6.488;2023-09-18T02:27:08;28.48;;;21.50;;
54191;SDS011;40101;53.002;6.488;2023-09-18T02:29:35;25.02;;;22.13;;
54191;SDS011;40101;53.002;6.488;2023-09-18T02:32:01;25.40;;;22.13;;
54191;SDS011;40101;53.002;6.488;2023-09-18T02:34:27;22.13;;;19.77;;
54191;SDS011;40101;53.002;6.488;2023-09-18T02:36:53;26.20;;;21.00;;
54191;SDS011;40101;53.002;6.488;2023-09-18T02:39:19;24.73;;;20.33;;
54191;SDS011;40101;53.002;6.488;2023-09-18T02:41:44;26.20;;;21.42;;
54191;SDS011;40101;53.002;6.488;2023-09-18T02:44:10;25.15;;;20.83;;
54191;SDS011;40101;53.002;6.488;2023-09-18T02:46:36;24.42;;;20.15;;
54191;SDS011;40101;53.002;6.488;2023-09-18T02:49:02;23.73;;;21.08;;
54191;SDS011;40101;53.002;6.488;2023-09-18T02:51:28;22.42;;;19.45;;
54191;SDS011;40101;53.002;6.488;2023-09-18T02:53:56;23.15;;;20.10;;
54191;SDS011;40101;53.002;6.488;2023-09-18T02:56:22;24.17;;;20.27;;
54191;SDS011;40101;53.002;6.488;2023-09-18T02:58:48;23.85;;;20.83;;
54191;SDS011;40101;53.002;6.488;2023-09-18T03:01:13;23.63;;;21.05;;
54191;SDS011;40101;53.002;6.488;2023-09-18T03:03:39;27.27;;;19.73;;
54191;SDS011;40101;53.002;6.488;2023-09-18T03:06:06;22.90;;;19.17;;
54191;SDS011;40101;53.002;6.488;2023-09-18T03:08:32;22.23;;;19.92;;
54191;SDS011;40101;53.002;6.488;2023-09-18T03:10:59;20.77;;;18.08;;
54191;SDS011;40101;53.002;6.488;2023-09-18T03:13:26;21.67;;;18.48;;
54191;SDS011;40101;53.002;6.488;2023-09-18T03:15:53;26.17;;;20.55;;
54191;SDS011;40101;53.002;6.488;2023-09-18T03:18:18;21.10;;;18.65;;
54191;SDS011;40101;53.002;6.488;2023-09-18T03:20:44;22.83;;;19.88;;
54191;SDS011;40101;53.002;6.488;2023-09-18T03:23:10;21.75;;;18.70;;
54191;SDS011;40101;53.002;6.488;2023-09-18T03:25:36;20.17;;;17.42;;
54191;SDS011;40101;53.002;6.488;2023-09-18T03:28:05;20.42;;;18.27;;
54191;SDS011;40101;53.002;6.488;2023-09-18T03:30:30;23.13;;;18.45;;
54191;SDS011;40101;53.002;6.488;2023-09-18T03:32:57;20.58;;;18.40;;
54191;SDS011;40101;53.002;6.488;2023-09-18T03:35:22;24.67;;;18.45;;
54191;SDS011;40101;53.002;6.488;2023-09-18T03:37:49;21.65;;;17.88;;
54191;SDS011;40101;53.002;6.488;2023-09-18T03:40:16;20.67;;;17.25;;
54191;SDS011;40101;53.002;6.488;2023-09-18T03:42:42;21.85;;;17.05;;
54191;SDS011;40101;53.002;6.488;2023-09-18T03:45:09;20.45;;;16.02;;
54191;SDS011;40101;53.002;6.488;2023-09-18T03:47:35;19.20;;;15.95;;
54191;SDS011;40101;53.002;6.488;2023-09-18T03:50:05;19.50;;;16.50;;
54191;SDS011;40101;53.002;6.488;2023-09-18T03:52:32;19.38;;;16.45;;
54191;SDS011;40101;53.002;6.488;2023-09-18T03:54:57;19.38;;;16.05;;
54191;SDS011;40101;53.002;6.488;2023-09-18T03:57:23;18.80;;;16.33;;
54191;SDS011;40101;53.002;6.488;2023-09-18T03:59:49;19.15;;;15.27;;
54191;SDS011;40101;53.002;6.488;2023-09-18T04:02:15;22.00;;;15.90;;
54191;SDS011;40101;53.002;6.488;2023-09-18T04:04:40;19.67;;;15.05;;
54191;SDS011;40101;53.002;6.488;2023-09-18T04:07:06;19.33;;;15.02;;
54191;SDS011;40101;53.002;6.488;2023-09-18T04:09:32;17.00;;;14.50;;
54191;SDS011;40101;53.002;6.488;2023-09-18T04:11:59;17.90;;;13.88;;
54191;SDS011;40101;53.002;6.488;2023-09-18T04:14:26;19.77;;;13.50;;
54191;SDS011;40101;53.002;6.488;2023-09-18T04:16:51;16.67;;;13.80;;
54191;SDS011;40101;53.002;6.488;2023-09-18T04:19:17;15.98;;;12.70;;
54191;SDS011;40101;53.002;6.488;2023-09-18T04:21:43;17.10;;;13.27;;
54191;SDS011;40101;53.002;6.488;2023-09-18T04:24:08;14.35;;;12.82;;
54191;SDS011;40101;53.002;6.488;2023-09-18T04:26:34;16.95;;;14.18;;
54191;SDS011;40101;53.002;6.488;2023-09-18T04:29:00;18.00;;;12.48;;
54191;SDS011;40101;53.002;6.488;2023-09-18T04:31:26;13.98;;;12.50;;
54191;SDS011;40101;53.002;6.488;2023-09-18T04:33:52;20.30;;;12.77;;
54191;SDS011;40101;53.002;6.488;2023-09-18T04:36:18;21.33;;;12.70;;
54191;SDS011;40101;53.002;6.488;2023-09-18T04:38:44;15.48;;;11.75;;
54191;SDS011;40101;53.002;6.488;2023-09-18T04:41:10;19.95;;;12.32;;
54191;SDS011;40101;53.002;6.488;2023-09-18T04:43:36;17.17;;;11.98;;
54191;SDS011;40101;53.002;6.488;2023-09-18T04:46:05;13.48;;;11.55;;
54191;SDS011;40101;53.002;6.488;2023-09-18T04:48:31;18.20;;;11.23;;
54191;SDS011;40101;53.002;6.488;2023-09-18T04:50:58;16.42;;;11.75;;
54191;SDS011;40101;53.002;6.488;2023-09-18T04:53:24;14.40;;;10.80;;
54191;SDS011;40101;53.002;6.488;2023-09-18T04:55:50;11.68;;;10.45;;
54191;SDS011;40101;53.002;6.488;2023-09-18T04:58:16;16.27;;;11.18;;
54191;SDS011;40101;53.002;6.488;2023-09-18T05:00:42;11.88;;;10.55;;
54191;SDS011;40101;53.002;6.488;2023-09-18T05:03:11;13.30;;;10.55;;
54191;SDS011;40101;53.002;6.488;2023-09-18T05:05:37;13.30;;;11.02;;
54191;SDS011;40101;53.002;6.488;2023-09-18T05:08:05;14.68;;;10.40;;
54191;SDS011;40101;53.002;6.488;2023-09-18T05:10:56;14.38;;;11.90;;
54191;SDS011;40101;53.002;6.488;2023-09-18T05:13:22;16.17;;;10.48;;
54191;SDS011;40101;53.002;6.488;2023-09-18T05:15:56;12.40;;;10.57;;
54191;SDS011;40101;53.002;6.488;2023-09-18T05:18:28;16.42;;;10.30;;
54191;SDS011;40101;53.002;6.488;2023-09-18T05:21:03;13.45;;;10.15;;
54191;SDS011;40101;53.002;6.488;2023-09-18T05:23:35;16.20;;;10.82;;
54191;SDS011;40101;53.002;6.488;2023-09-18T05:26:19;15.70;;;10.32;;
54191;SDS011;40101;53.002;6.488;2023-09-18T05:29:14;25.35;;;10.63;;
54191;SDS011;40101;53.002;6.488;2023-09-18T05:31:40;13.32;;;9.90;;
54191;SDS011;40101;53.002;6.488;2023-09-18T05:34:06;15.10;;;9.70;;
54191;SDS011;40101;53.002;6.488;2023-09-18T05:36:31;13.00;;;8.93;;
54191;SDS011;40101;53.002;6.488;2023-09-18T05:38:57;13.45;;;9.15;;
54191;SDS011;40101;53.002;6.488;2023-09-18T05:41:23;13.55;;;8.98;;
54191;SDS011;40101;53.002;6.488;2023-09-18T05:43:51;9.73;;;7.97;;
54191;SDS011;40101;53.002;6.488;2023-09-18T05:46:17;13.48;;;9.07;;
54191;SDS011;40101;53.002;6.488;2023-09-18T05:48:42;15.25;;;9.38;;
54191;SDS011;40101;53.002;6.488;2023-09-18T05:51:08;13.20;;;9.20;;
54191;SDS011;40101;53.002;6.488;2023-09-18T05:53:33;9.88;;;8.18;;
54191;SDS011;40101;53.002;6.488;2023-09-18T05:56:00;11.13;;;8.25;;
54191;SDS011;40101;53.002;6.488;2023-09-18T05:58:29;14.13;;;8.50;;
54191;SDS011;40101;53.002;6.488;2023-09-18T06:01:00;17.67;;;8.73;;
54191;SDS011;40101;53.002;6.488;2023-09-18T06:03:26;15.35;;;8.80;;
54191;SDS011;40101;53.002;6.488;2023-09-18T06:05:55;10.35;;;8.40;;
54191;SDS011;40101;53.002;6.488;2023-09-18T06:08:21;11.98;;;7.97;;
54191;SDS011;40101;53.002;6.488;2023-09-18T06:10:47;9.32;;;7.53;;
54191;SDS011;40101;53.002;6.488;2023-09-18T06:13:13;12.98;;;8.35;;
54191;SDS011;40101;53.002;6.488;2023-09-18T06:15:39;15.13;;;8.63;;
54191;SDS011;40101;53.002;6.488;2023-09-18T06:18:04;12.85;;;9.57;;
54191;SDS011;40101;53.002;6.488;2023-09-18T06:20:31;11.65;;;9.23;;
54191;SDS011;40101;53.002;6.488;2023-09-18T06:22:57;13.38;;;8.50;;
54191;SDS011;40101;53.002;6.488;2023-09-18T06:25:22;12.32;;;9.00;;
54191;SDS011;40101;53.002;6.488;2023-09-18T06:27:48;16.70;;;9.25;;
54191;SDS011;40101;53.002;6.488;2023-09-18T06:30:14;18.52;;;10.25;;
54191;SDS011;40101;53.002;6.488;2023-09-18T06:32:39;12.98;;;9.95;;
54191;SDS011;40101;53.002;6.488;2023-09-18T06:35:05;12.95;;;8.13;;
54191;SDS011;40101;53.002;6.488;2023-09-18T06:37:31;14.13;;;8.60;;
54191;SDS011;40101;53.002;6.488;2023-09-18T06:39:57;18.00;;;9.30;;
54191;SDS011;40101;53.002;6.488;2023-09-18T06:42:23;16.08;;;10.43;;
54191;SDS011;40101;53.002;6.488;2023-09-18T06:44:49;16.17;;;10.77;;
54191;SDS011;40101;53.002;6.488;2023-09-18T06:47:14;17.45;;;11.40;;
54191;SDS011;40101;53.002;6.488;2023-09-18T06:49:41;18.80;;;11.35;;
54191;SDS011;40101;53.002;6.488;2023-09-18T06:52:07;14.90;;;10.30;;
54191;SDS011;40101;53.002;6.488;2023-09-18T06:54:33;14.93;;;11.13;;
54191;SDS011;40101;53.002;6.488;2023-09-18T06:56:59;22.15;;;11.23;;
54191;SDS011;40101;53.002;6.488;2023-09-18T06:59:24;15.68;;;11.85;;
54191;SDS011;40101;53.002;6.488;2023-09-18T07:01:50;15.88;;;11.65;;
54191;SDS011;40101;53.002;6.488;2023-09-18T07:04:16;16.35;;;12.48;;
54191;SDS011;40101;53.002;6.488;2023-09-18T07:06:41;16.88;;;11.80;;
54191;SDS011;40101;53.002;6.488;2023-09-18T07:09:07;17.27;;;11.85;;
54191;SDS011;40101;53.002;6.488;2023-09-18T07:11:37;16.50;;;11.77;;
54191;SDS011;40101;53.002;6.488;2023-09-18T07:14:03;19.83;;;11.95;;
54191;SDS011;40101;53.002;6.488;2023-09-18T07:16:31;18.27;;;12.52;;
54191;SDS011;40101;53.002;6.488;2023-09-18T07:18:57;25.77;;;12.93;;
54191;SDS011;40101;53.002;6.488;2023-09-18T07:21:22;23.80;;;15.05;;
54191;SDS011;40101;53.002;6.488;2023-09-18T07:23:48;23.00;;;14.30;;
54191;SDS011;40101;53.002;6.488;2023-09-18T07:26:14;33.40;;;16.30;;
54191;SDS011;40101;53.002;6.488;2023-09-18T07:28:39;23.40;;;15.65;;
54191;SDS011;40101;53.002;6.488;2023-09-18T07:31:07;21.45;;;15.45;;
54191;SDS011;40101;53.002;6.488;2023-09-18T07:33:34;20.33;;;15.82;;
54191;SDS011;40101;53.002;6.488;2023-09-18T07:35:59;23.92;;;16.25;;
54191;SDS011;40101;53.002;6.488;2023-09-18T07:38:25;28.05;;;18.08;;
54191;SDS011;40101;53.002;6.488;2023-09-18T07:40:51;25.85;;;16.00;;
54191;SDS011;40101;53.002;6.488;2023-09-18T07:43:17;19.45;;;15.23;;
54191;SDS011;40101;53.002;6.488;2023-09-18T07:45:42;16.27;;;14.30;;
54191;SDS011;40101;53.002;6.488;2023-09-18T07:48:08;18.92;;;14.07;;
54191;SDS011;40101;53.002;6.488;2023-09-18T07:50:34;20.98;;;12.98;;
54191;SDS011;40101;53.002;6.488;2023-09-18T07:53:00;18.10;;;13.30;;
54191;SDS011;40101;53.002;6.488;2023-09-18T07:55:27;19.33;;;13.95;;
54191;SDS011;40101;53.002;6.488;2023-09-18T07:57:53;18.17;;;13.25;;
54191;SDS011;40101;53.002;6.488;2023-09-18T08:00:18;24.52;;;14.85;;
54191;SDS011;40101;53.002;6.488;2023-09-18T08:02:46;22.10;;;15.23;;
54191;SDS011;40101;53.002;6.488;2023-09-18T08:05:14;21.50;;;14.60;;
54191;SDS011;40101;53.002;6.488;2023-09-18T08:07:39;18.77;;;13.80;;
54191;SDS011;40101;53.002;6.488;2023-09-18T08:10:05;19.23;;;15.23;;
54191;SDS011;40101;53.002;6.488;2023-09-18T08:12:33;19.17;;;13.95;;
54191;SDS011;40101;53.002;6.488;2023-09-18T08:15:00;19.35;;;14.40;;
54191;SDS011;40101;53.002;6.488;2023-09-18T08:17:26;23.48;;;17.27;;
54191;SDS011;40101;53.002;6.488;2023-09-18T08:19:52;19.92;;;15.63;;
54191;SDS011;40101;53.002;6.488;2023-09-18T08:22:18;21.60;;;15.73;;
54191;SDS011;40101;53.002;6.488;2023-09-18T08:24:46;22.65;;;16.02;;
54191;SDS011;40101;53.002;6.488;2023-09-18T08:27:13;27.35;;;16.67;;
54191;SDS011;40101;53.002;6.488;2023-09-18T08:29:41;19.95;;;14.13;;
54191;SDS011;40101;53.002;6.488;2023-09-18T08:32:08;20.20;;;15.27;;
54191;SDS011;40101;53.002;6.488;2023-09-18T08:34:34;19.65;;;14.25;;
54191;SDS011;40101;53.002;6.488;2023-09-18T08:36:59;21.52;;;14.68;;
54191;SDS011;40101;53.002;6.488;2023-09-18T08:39:25;24.10;;;15.48;;
54191;SDS011;40101;53.002;6.488;2023-09-18T08:41:51;20.00;;;13.13;;
54191;SDS011;40101;53.002;6.488;2023-09-18T08:44:23;18.92;;;13.15;;
54191;SDS011;40101;53.002;6.488;2023-09-18T08:46:52;17.98;;;13.45;;
54191;SDS011;40101;53.002;6.488;2023-09-18T08:49:19;17.92;;;13.75;;
54191;SDS011;40101;53.002;6.488;2023-09-18T08:51:47;21.00;;;13.32;;
54191;SDS011;40101;53.002;6.488;2023-09-18T08:54:15;18.83;;;12.95;;
54191;SDS011;40101;53.002;6.488;2023-09-18T08:56:42;22.60;;;13.75;;
54191;SDS011;40101;53.002;6.488;2023-09-18T08:59:08;21.90;;;13.68;;
54191;SDS011;40101;53.002;6.488;2023-09-18T09:01:34;18.63;;;13.57;;
54191;SDS011;40101;53.002;6.488;2023-09-18T09:03:59;17.25;;;13.35;;
54191;SDS011;40101;53.002;6.488;2023-09-18T09:06:25;19.55;;;12.90;;
54191;SDS011;40101;53.002;6.488;2023-09-18T09:08:51;18.30;;;13.20;;
54191;SDS011;40101;53.002;6.488;2023-09-18T09:11:17;21.40;;;14.02;;
54191;SDS011;40101;53.002;6.488;2023-09-18T09:13:44;20.13;;;12.65;;
54191;SDS011;40101;53.002;6.488;2023-09-18T09:16:10;21.83;;;13.68;;
54191;SDS011;40101;53.002;6.488;2023-09-18T09:18:46;24.98;;;15.30;;
54191;SDS011;40101;53.002;6.488;2023-09-18T09:21:15;19.13;;;13.50;;
54191;SDS011;40101;53.002;6.488;2023-09-18T09:23:51;18.20;;;13.30;;
54191;SDS011;40101;53.002;6.488;2023-09-18T09:26:19;23.60;;;14.10;;
54191;SDS011;40101;53.002;6.488;2023-09-18T09:28:46;25.13;;;14.85;;
54191;SDS011;40101;53.002;6.488;2023-09-18T09:31:22;28.38;;;15.77;;
54191;SDS011;40101;53.002;6.488;2023-09-18T09:33:53;22.05;;;15.63;;
54191;SDS011;40101;53.002;6.488;2023-09-18T09:36:19;22.98;;;14.88;;
54191;SDS011;40101;53.002;6.488;2023-09-18T09:38:48;22.15;;;16.10;;
54191;SDS011;40101;53.002;6.488;2023-09-18T09:41:19;20.50;;;17.23;;
54191;SDS011;40101;53.002;6.488;2023-09-18T09:43:44;20.23;;;16.70;;
54191;SDS011;40101;53.002;6.488;2023-09-18T09:46:15;20.73;;;15.18;;
54191;SDS011;40101;53.002;6.488;2023-09-18T09:49:02;19.00;;;16.10;;
54191;SDS011;40101;53.002;6.488;2023-09-18T09:51:30;21.33;;;16.83;;
54191;SDS011;40101;53.002;6.488;2023-09-18T09:53:56;20.38;;;16.17;;
54191;SDS011;40101;53.002;6.488;2023-09-18T09:56:39;21.23;;;17.23;;
54191;SDS011;40101;53.002;6.488;2023-09-18T09:59:06;24.70;;;16.85;;
54191;SDS011;40101;53.002;6.488;2023-09-18T10:01:36;21.02;;;16.50;;
54191;SDS011;40101;53.002;6.488;2023-09-18T10:04:04;19.27;;;15.20;;
54191;SDS011;40101;53.002;6.488;2023-09-18T10:06:34;17.85;;;15.48;;
54191;SDS011;40101;53.002;6.488;2023-09-18T10:09:02;20.75;;;14.52;;
54191;SDS011;40101;53.002;6.488;2023-09-18T10:11:29;18.30;;;14.25;;
54191;SDS011;40101;53.002;6.488;2023-09-18T10:14:00;17.50;;;13.57;;
54191;SDS011;40101;53.002;6.488;2023-09-18T10:16:36;13.65;;;11.80;;
54191;SDS011;40101;53.002;6.488;2023-09-18T10:19:14;14.00;;;11.93;;
54191;SDS011;40101;53.002;6.488;2023-09-18T10:24:41;12.60;;;10.35;;
54191;SDS011;40101;53.002;6.488;2023-09-18T10:27:12;11.55;;;9.85;;
54191;SDS011;40101;53.002;6.488;2023-09-18T10:29:40;13.32;;;10.00;;
54191;SDS011;40101;53.002;6.488;2023-09-18T10:32:07;11.02;;;9.82;;
54191;SDS011;40101;53.002;6.488;2023-09-18T10:34:33;11.32;;;10.32;;
54191;SDS011;40101;53.002;6.488;2023-09-18T10:37:00;11.20;;;8.70;;
54191;SDS011;40101;53.002;6.488;2023-09-18T10:39:30;9.13;;;8.20;;
54191;SDS011;40101;53.002;6.488;2023-09-18T10:41:57;15.15;;;7.28;;
54191;SDS011;40101;53.002;6.488;2023-09-18T10:44:27;9.50;;;7.13;;
54191;SDS011;40101;53.002;6.488;2023-09-18T10:46:53;10.43;;;6.88;;
54191;SDS011;40101;53.002;6.488;2023-09-18T10:49:20;12.00;;;6.63;;
54191;SDS011;40101;53.002;6.488;2023-09-18T10:51:47;6.72;;;5.93;;
54191;SDS011;40101;53.002;6.488;2023-09-18T10:54:19;7.78;;;5.57;;
54191;SDS011;40101;53.002;6.488;2023-09-18T10:56:47;6.72;;;6.05;;
54191;SDS011;40101;53.002;6.488;2023-09-18T10:59:14;9.43;;;6.43;;
54191;SDS011;40101;53.002;6.488;2023-09-18T11:01:41;6.43;;;5.07;;
54191;SDS011;40101;53.002;6.488;2023-09-18T11:04:07;10.57;;;4.85;;
54191;SDS011;40101;53.002;6.488;2023-09-18T11:09:19;8.73;;;5.15;;
54191;SDS011;40101;53.002;6.488;2023-09-18T11:22:55;5.93;;;4.72;;
54191;SDS011;40101;53.002;6.488;2023-09-18T11:25:35;8.80;;;4.55;;
54191;SDS011;40101;53.002;6.488;2023-09-18T11:28:02;8.13;;;3.28;;
54191;SDS011;40101;53.002;6.488;2023-09-18T11:30:32;6.97;;;3.72;;
54191;SDS011;40101;53.002;6.488;2023-09-18T11:33:02;5.13;;;3.63;;
54191;SDS011;40101;53.002;6.488;2023-09-18T11:35:31;7.90;;;4.43;;
54191;SDS011;40101;53.002;6.488;2023-09-18T11:40:32;6.13;;;4.47;;
54191;SDS011;40101;53.002;6.488;2023-09-18T11:43:22;10.35;;;4.55;;
54191;SDS011;40101;53.002;6.488;2023-09-18T11:45:54;6.75;;;4.70;;
54191;SDS011;40101;53.002;6.488;2023-09-18T11:48:22;7.03;;;3.72;;
54191;SDS011;40101;53.002;6.488;2023-09-18T11:50:53;5.85;;;4.45;;
54191;SDS011;40101;53.002;6.488;2023-09-18T11:53:19;8.10;;;4.60;;
54191;SDS011;40101;53.002;6.488;2023-09-18T11:55:45;5.55;;;4.32;;
54191;SDS011;40101;53.002;6.488;2023-09-18T11:58:11;7.80;;;4.00;;
54191;SDS011;40101;53.002;6.488;2023-09-18T12:00:38;4.20;;;3.75;;
54191;SDS011;40101;53.002;6.488;2023-09-18T12:05:43;7.68;;;4.70;;
54191;SDS011;40101;53.002;6.488;2023-09-18T12:08:09;4.95;;;4.47;;
54191;SDS011;40101;53.002;6.488;2023-09-18T12:10:36;5.13;;;3.80;;
54191;SDS011;40101;53.002;6.488;2023-09-18T12:13:06;6.53;;;4.13;;
54191;SDS011;40101;53.002;6.488;2023-09-18T12:15:33;5.53;;;3.63;;
54191;SDS011;40101;53.002;6.488;2023-09-18T12:18:09;4.82;;;3.50;;
54191;SDS011;40101;53.002;6.488;2023-09-18T12:20:44;5.38;;;3.67;;
54191;SDS011;40101;53.002;6.488;2023-09-18T12:23:11;6.85;;;4.10;;
54191;SDS011;40101;53.002;6.488;2023-09-18T12:25:37;9.25;;;4.18;;
54191;SDS011;40101;53.002;6.488;2023-09-18T12:28:04;3.65;;;3.35;;
54191;SDS011;40101;53.002;6.488;2023-09-18T12:30:32;5.38;;;3.95;;
54191;SDS011;40101;53.002;6.488;2023-09-18T12:32:58;5.15;;;3.83;;
54191;SDS011;40101;53.002;6.488;2023-09-18T12:35:28;8.73;;;4.32;;
54191;SDS011;40101;53.002;6.488;2023-09-18T12:37:55;7.63;;;4.18;;
54191;SDS011;40101;53.002;6.488;2023-09-18T12:40:23;6.85;;;3.97;;
54191;SDS011;40101;53.002;6.488;2023-09-18T12:42:50;6.28;;;3.92;;
54191;SDS011;40101;53.002;6.488;2023-09-18T12:45:16;6.20;;;3.50;;
54191;SDS011;40101;53.002;6.488;2023-09-18T12:47:42;6.10;;;3.63;;
54191;SDS011;40101;53.002;6.488;2023-09-18T12:50:09;5.57;;;3.33;;
54191;SDS011;40101;53.002;6.488;2023-09-18T12:52:38;4.30;;;3.05;;
54191;SDS011;40101;53.002;6.488;2023-09-18T12:55:04;6.10;;;3.90;;
54191;SDS011;40101;53.002;6.488;2023-09-18T12:57:31;5.22;;;3.22;;
54191;SDS011;40101;53.002;6.488;2023-09-18T12:59:58;6.18;;;3.53;;
54191;SDS011;40101;53.002;6.488;2023-09-18T13:02:23;10.95;;;4.13;;
54191;SDS011;40101;53.002;6.488;2023-09-18T13:04:55;7.57;;;3.38;;
54191;SDS011;40101;53.002;6.488;2023-09-18T13:07:22;7.78;;;3.53;;
54191;SDS011;40101;53.002;6.488;2023-09-18T13:12:25;5.65;;;3.65;;
54191;SDS011;40101;53.002;6.488;2023-09-18T13:15:04;4.65;;;3.17;;
54191;SDS011;40101;53.002;6.488;2023-09-18T13:17:43;6.25;;;2.97;;
54191;SDS011;40101;53.002;6.488;2023-09-18T13:20:16;9.27;;;3.63;;
54191;SDS011;40101;53.002;6.488;2023-09-18T13:22:48;4.20;;;3.80;;
54191;SDS011;40101;53.002;6.488;2023-09-18T13:25:58;5.82;;;3.80;;
54191;SDS011;40101;53.002;6.488;2023-09-18T13:28:08;7.07;;;3.92;;
54191;SDS011;40101;53.002;6.488;2023-09-18T13:30:35;5.18;;;3.85;;
54191;SDS011;40101;53.002;6.488;2023-09-18T13:33:04;4.70;;;3.60;;
54191;SDS011;40101;53.002;6.488;2023-09-18T13:35:36;9.68;;;3.72;;
54191;SDS011;40101;53.002;6.488;2023-09-18T13:38:03;4.55;;;3.88;;
54191;SDS011;40101;53.002;6.488;2023-09-18T13:40:31;6.20;;;3.47;;
54191;SDS011;40101;53.002;6.488;2023-09-18T13:42:58;5.65;;;3.50;;
54191;SDS011;40101;53.002;6.488;2023-09-18T13:45:24;8.35;;;3.75;;
54191;SDS011;40101;53.002;6.488;2023-09-18T13:47:50;6.82;;;3.67;;
54191;SDS011;40101;53.002;6.488;2023-09-18T13:50:15;5.18;;;3.78;;
54191;SDS011;40101;53.002;6.488;2023-09-18T13:52:41;4.38;;;3.38;;
54191;SDS011;40101;53.002;6.488;2023-09-18T13:55:07;6.15;;;3.13;;
54191;SDS011;40101;53.002;6.488;2023-09-18T13:57:34;4.95;;;3.15;;
54191;SDS011;40101;53.002;6.488;2023-09-18T14:00:00;6.03;;;2.95;;
54191;SDS011;40101;53.002;6.488;2023-09-18T14:02:32;6.05;;;3.20;;
54191;SDS011;40101;53.002;6.488;2023-09-18T14:04:58;8.32;;;3.47;;
54191;SDS011;40101;53.002;6.488;2023-09-18T14:07:23;9.60;;;3.33;;
54191;SDS011;40101;53.002;6.488;2023-09-18T14:09:49;4.95;;;3.15;;
54191;SDS011;40101;53.002;6.488;2023-09-18T14:12:15;8.18;;;3.00;;
54191;SDS011;40101;53.002;6.488;2023-09-18T14:17:37;4.68;;;3.25;;
54191;SDS011;40101;53.002;6.488;2023-09-18T14:20:03;5.43;;;4.32;;
54191;SDS011;40101;53.002;6.488;2023-09-18T14:22:31;8.25;;;3.88;;
54191;SDS011;40101;53.002;6.488;2023-09-18T14:25:01;4.93;;;3.22;;
54191;SDS011;40101;53.002;6.488;2023-09-18T14:27:31;9.30;;;5.68;;
54191;SDS011;40101;53.002;6.488;2023-09-18T14:29:57;9.52;;;5.05;;
54191;SDS011;40101;53.002;6.488;2023-09-18T14:32:23;8.27;;;4.95;;
54191;SDS011;40101;53.002;6.488;2023-09-18T14:34:48;6.97;;;4.45;;
54191;SDS011;40101;53.002;6.488;2023-09-18T14:37:14;5.82;;;4.40;;
54191;SDS011;40101;53.002;6.488;2023-09-18T14:39:40;6.07;;;3.58;;
54191;SDS011;40101;53.002;6.488;2023-09-18T14:42:05;6.13;;;3.75;;
54191;SDS011;40101;53.002;6.488;2023-09-18T14:44:31;5.00;;;3.65;;
54191;SDS011;40101;53.002;6.488;2023-09-18T14:46:57;8.48;;;4.03;;
54191;SDS011;40101;53.002;6.488;2023-09-18T14:49:24;3.92;;;2.83;;
54191;SDS011;40101;53.002;6.488;2023-09-18T14:51:52;5.88;;;4.97;;
54191;SDS011;40101;53.002;6.488;2023-09-18T14:54:19;5.88;;;3.13;;
54191;SDS011;40101;53.002;6.488;2023-09-18T14:56:45;3.88;;;3.20;;